createdAt,value
2023-03-22T00:04:50.046Z,16.9
2023-03-22T00:09:50.562Z,17.3
2023-03-22T00:14:53.117Z,16.2
2023-03-22T00:19:53.687Z,15.7
2023-03-22T00:24:54.169Z,16.1
2023-03-22T00:29:54.801Z,16.1
2023-03-22T00:34:55.546Z,17.2
2023-03-22T00:39:56.214Z,16.2
2023-03-22T00:44:56.702Z,16.6
2023-03-22T00:49:57.371Z,17
2023-03-22T00:54:57.872Z,16.8
2023-03-22T00:59:58.343Z,17.1
2023-03-22T01:04:59.030Z,16.3
2023-03-22T01:09:59.495Z,16.4
2023-03-22T01:15:00.037Z,16.1
2023-03-22T01:20:01.159Z,16.4
2023-03-22T01:25:01.680Z,16.6
2023-03-22T01:30:02.169Z,16.6
2023-03-22T01:35:02.763Z,16.6
2023-03-22T01:40:03.478Z,16.5
2023-03-22T01:45:03.999Z,17.2
2023-03-22T01:50:04.653Z,16.6
2023-03-22T01:55:05.139Z,17.3
2023-03-22T02:05:06.822Z,19.8
2023-03-22T02:10:07.496Z,24.6
2023-03-22T02:15:08.041Z,21.2
2023-03-22T02:20:09.163Z,20.5
2023-03-22T02:25:09.980Z,17.3
2023-03-22T02:30:10.716Z,18.2
2023-03-22T02:35:11.605Z,17.1
2023-03-22T02:40:12.337Z,16.6
2023-03-22T02:45:13.047Z,16.6
2023-03-22T02:50:13.814Z,17.6
2023-03-22T02:55:14.480Z,16.9
2023-03-22T03:00:14.963Z,17.6
2023-03-22T03:05:15.861Z,17
2023-03-22T03:10:16.651Z,17.7
2023-03-22T03:15:17.186Z,18.2
2023-03-22T03:20:17.894Z,17.4
2023-03-22T03:25:18.604Z,17.4
2023-03-22T03:35:19.896Z,17.3
2023-03-22T03:40:20.531Z,17
2023-03-22T03:45:21.044Z,16.9
2023-03-22T03:50:22.049Z,20.7
2023-03-22T03:55:22.658Z,20
2023-03-22T04:00:23.258Z,19.8
2023-03-22T04:05:23.959Z,20.5
2023-03-22T04:10:24.540Z,20.2
2023-03-22T04:15:25.475Z,19.8
2023-03-22T04:20:26.325Z,18.6
2023-03-22T04:25:26.821Z,20.1
2023-03-22T04:30:27.395Z,19.4
2023-03-22T04:35:28.029Z,21.3
2023-03-22T04:40:28.634Z,20.2
2023-03-22T04:45:29.372Z,20.7
2023-03-22T04:50:30.019Z,20.8
2023-03-22T04:55:30.567Z,18.6
2023-03-22T05:00:31.217Z,17.8
2023-03-22T05:05:31.840Z,18.4
2023-03-22T05:10:32.462Z,19.5
2023-03-22T05:15:33.024Z,18.4
2023-03-22T05:20:33.519Z,18.3
2023-03-22T05:25:34.002Z,18.6
2023-03-22T05:30:34.362Z,18.4
2023-03-22T05:35:35.001Z,18.2
2023-03-22T05:40:35.740Z,23
2023-03-22T05:45:36.222Z,22.7
2023-03-22T05:50:36.949Z,16.9
2023-03-22T05:55:37.463Z,16.2
2023-03-22T06:00:38.944Z,15.6
2023-03-22T06:05:39.890Z,16.8
2023-03-22T06:10:41.018Z,16.5
2023-03-22T06:15:41.738Z,16
2023-03-22T06:20:43.030Z,14.7
2023-03-22T06:25:43.648Z,14
2023-03-22T06:30:44.405Z,13.9
2023-03-22T06:35:47.854Z,14
2023-03-22T06:40:51.869Z,12.3
2023-03-22T06:45:52.479Z,12.7
2023-03-22T06:50:52.986Z,12.9
2023-03-22T06:55:56.279Z,12
2023-03-22T07:00:56.932Z,11.7
2023-03-22T07:05:57.526Z,11.3
2023-03-22T07:10:57.996Z,11.2
2023-03-22T07:15:58.540Z,10.5
2023-03-22T07:20:58.997Z,11.2
2023-03-22T07:26:00.385Z,10.5
2023-03-22T07:31:01.013Z,11.1
2023-03-22T07:36:01.889Z,10.5
2023-03-22T07:41:02.625Z,10.5
2023-03-22T07:46:03.283Z,9.6
2023-03-22T07:51:04.045Z,10.4
2023-03-22T07:56:04.542Z,9.5
2023-03-22T08:01:05.004Z,9
2023-03-22T08:06:05.863Z,9.2
2023-03-22T08:11:06.565Z,9.1
2023-03-22T08:16:07.240Z,9
2023-03-22T08:21:08.194Z,9.2
2023-03-22T08:26:08.732Z,9
2023-03-22T08:31:09.368Z,8.2
2023-03-22T08:36:10.236Z,8.9
2023-03-22T08:41:10.809Z,9.6
2023-03-22T08:46:11.461Z,8.8
2023-03-22T08:51:12.086Z,8.1
2023-03-22T08:56:12.724Z,8.1
2023-03-22T09:01:13.420Z,8.3
2023-03-22T09:06:14.168Z,8
2023-03-22T09:11:17.871Z,8.5
2023-03-22T09:16:18.699Z,8.6
2023-03-22T09:21:19.291Z,8.9
2023-03-22T09:26:20.065Z,8.6
2023-03-22T09:31:22.071Z,7.7
2023-03-22T09:36:22.490Z,7.5
2023-03-22T09:41:23.140Z,6.7
2023-03-22T09:46:24.000Z,7.5
2023-03-22T09:51:24.465Z,7.6
2023-03-22T09:56:25.147Z,7.8
2023-03-22T10:01:26.055Z,7.6
2023-03-22T10:06:29.411Z,7.9
2023-03-22T10:11:30.329Z,8.5
2023-03-22T10:16:31.252Z,8.1
2023-03-22T10:21:31.902Z,7.6
2023-03-22T10:26:36.586Z,7.3
2023-03-22T10:31:37.361Z,6.2
2023-03-22T10:36:37.753Z,5.5
2023-03-22T10:41:38.265Z,5.7
2023-03-22T10:46:38.977Z,6.4
2023-03-22T10:51:39.817Z,5.3
2023-03-22T10:56:40.332Z,5.8
2023-03-22T11:01:41.171Z,5.2
2023-03-22T11:06:42.309Z,4.8
2023-03-22T11:11:42.894Z,4.4
2023-03-22T11:16:43.845Z,4
2023-03-22T11:21:44.306Z,4.9
2023-03-22T11:26:45.707Z,3.9
2023-03-22T11:31:46.319Z,3.5
2023-03-22T11:41:47.736Z,4.1
2023-03-22T11:46:55.768Z,4
2023-03-22T11:51:56.204Z,4.1
2023-03-22T11:56:56.689Z,4
2023-03-22T12:01:57.130Z,4.1
2023-03-22T12:06:57.680Z,4.8
2023-03-22T12:11:58.151Z,4.3
2023-03-22T12:16:58.854Z,4.5
2023-03-22T12:21:59.552Z,4.5
2023-03-22T12:26:59.947Z,4.3
2023-03-22T12:32:00.609Z,4.1
2023-03-22T12:37:01.523Z,3.6
2023-03-22T12:42:02.320Z,4
2023-03-22T12:47:03.113Z,4.7
2023-03-22T12:52:03.849Z,3.6
2023-03-22T12:57:04.570Z,3.7
2023-03-22T13:02:05.086Z,3.9
2023-03-22T13:07:06.502Z,4.4
2023-03-22T13:12:09.859Z,5
2023-03-22T13:17:10.521Z,5
2023-03-22T13:22:11.400Z,5
2023-03-22T13:27:11.826Z,4.9
2023-03-22T13:32:13.790Z,5
2023-03-22T13:37:29.020Z,4.5
2023-03-22T13:42:19.648Z,4.6
2023-03-22T13:47:20.076Z,4.3
2023-03-22T13:52:28.148Z,5.1
2023-03-22T13:57:28.660Z,4.3
2023-03-22T14:02:29.358Z,4.5
2023-03-22T14:07:30.218Z,4.4
2023-03-22T14:12:34.877Z,3.7
2023-03-22T14:17:35.648Z,3.3
